sensor_id;sensor_type;location;lat;lon;timestamp;P1;durP1;ratioP1;P2;durP2;ratioP2
65275;SDS011;51875;49.994;14.052;2023-04-25T00:00:23;4.40;;;1.92;;
65275;SDS011;51875;49.994;14.052;2023-04-25T00:02:00;2.65;;;2.05;;
65275;SDS011;51875;49.994;14.052;2023-04-25T00:03:15;2.38;;;1.90;;
65275;SDS011;51875;49.994;14.052;2023-04-25T00:04:34;3.45;;;2.00;;
65275;SDS011;51875;49.994;14.052;2023-04-25T00:05:49;3.70;;;2.05;;
65275;SDS011;51875;49.994;14.052;2023-04-25T00:07:06;6.53;;;2.58;;
65275;SDS011;51875;49.994;14.052;2023-04-25T00:08:22;3.33;;;2.03;;
65275;SDS011;51875;49.994;14.052;2023-04-25T00:09:38;7.25;;;2.38;;
65275;SDS011;51875;49.994;14.052;2023-04-25T00:10:53;3.42;;;2.40;;
65275;SDS011;51875;49.994;14.052;2023-04-25T00:12:09;3.53;;;2.42;;
65275;SDS011;51875;49.994;14.052;2023-04-25T00:13:25;3.28;;;2.20;;
65275;SDS011;51875;49.994;14.052;2023-04-25T00:14:41;3.50;;;2.38;;
65275;SDS011;51875;49.994;14.052;2023-04-25T00:15:56;4.60;;;2.53;;
65275;SDS011;51875;49.994;14.052;2023-04-25T00:17:13;6.35;;;2.50;;
65275;SDS011;51875;49.994;14.052;2023-04-25T00:18:28;3.10;;;2.05;;
65275;SDS011;51875;49.994;14.052;2023-04-25T00:19:44;3.92;;;2.35;;
65275;SDS011;51875;49.994;14.052;2023-04-25T00:21:01;4.25;;;2.17;;
65275;SDS011;51875;49.994;14.052;2023-04-25T00:22:17;5.07;;;2.35;;
65275;SDS011;51875;49.994;14.052;2023-04-25T00:23:33;4.90;;;2.50;;
65275;SDS011;51875;49.994;14.052;2023-04-25T00:24:50;4.28;;;2.42;;
65275;SDS011;51875;49.994;14.052;2023-04-25T00:26:08;3.92;;;2.17;;
65275;SDS011;51875;49.994;14.052;2023-04-25T00:27:23;6.05;;;2.47;;
65275;SDS011;51875;49.994;14.052;2023-04-25T00:28:39;6.25;;;2.35;;
65275;SDS011;51875;49.994;14.052;2023-04-25T00:29:55;3.55;;;2.30;;
65275;SDS011;51875;49.994;14.052;2023-04-25T00:31:11;3.08;;;2.25;;
65275;SDS011;51875;49.994;14.052;2023-04-25T00:32:27;2.85;;;2.15;;
65275;SDS011;51875;49.994;14.052;2023-04-25T00:33:42;4.65;;;2.30;;
65275;SDS011;51875;49.994;14.052;2023-04-25T00:34:58;4.22;;;2.40;;
65275;SDS011;51875;49.994;14.052;2023-04-25T00:36:14;4.53;;;2.22;;
65275;SDS011;51875;49.994;14.052;2023-04-25T00:37:29;3.47;;;2.30;;
65275;SDS011;51875;49.994;14.052;2023-04-25T00:38:45;4.03;;;1.92;;
65275;SDS011;51875;49.994;14.052;2023-04-25T00:40:01;4.28;;;2.85;;
65275;SDS011;51875;49.994;14.052;2023-04-25T00:41:16;4.00;;;2.47;;
65275;SDS011;51875;49.994;14.052;2023-04-25T00:42:32;5.70;;;2.70;;
65275;SDS011;51875;49.994;14.052;2023-04-25T00:43:48;4.68;;;2.38;;
65275;SDS011;51875;49.994;14.052;2023-04-25T00:45:05;5.22;;;2.30;;
65275;SDS011;51875;49.994;14.052;2023-04-25T00:46:22;4.68;;;2.75;;
65275;SDS011;51875;49.994;14.052;2023-04-25T00:47:38;4.45;;;2.40;;
65275;SDS011;51875;49.994;14.052;2023-04-25T00:48:53;4.18;;;3.03;;
65275;SDS011;51875;49.994;14.052;2023-04-25T00:50:09;3.90;;;2.55;;
65275;SDS011;51875;49.994;14.052;2023-04-25T00:51:26;4.30;;;2.47;;
65275;SDS011;51875;49.994;14.052;2023-04-25T00:52:43;5.60;;;2.58;;
65275;SDS011;51875;49.994;14.052;2023-04-25T00:53:59;3.80;;;2.53;;
65275;SDS011;51875;49.994;14.052;2023-04-25T00:55:16;4.07;;;2.80;;
65275;SDS011;51875;49.994;14.052;2023-04-25T00:56:32;4.95;;;2.88;;
65275;SDS011;51875;49.994;14.052;2023-04-25T00:57:48;4.85;;;2.63;;
65275;SDS011;51875;49.994;14.052;2023-04-25T00:59:05;3.88;;;2.70;;
65275;SDS011;51875;49.994;14.052;2023-04-25T01:00:21;4.65;;;2.70;;
65275;SDS011;51875;49.994;14.052;2023-04-25T01:01:37;4.80;;;2.70;;
65275;SDS011;51875;49.994;14.052;2023-04-25T01:02:54;4.28;;;2.65;;
65275;SDS011;51875;49.994;14.052;2023-04-25T01:04:10;4.45;;;2.78;;
65275;SDS011;51875;49.994;14.052;2023-04-25T01:05:26;4.50;;;2.50;;
65275;SDS011;51875;49.994;14.052;2023-04-25T01:06:41;5.28;;;2.25;;
65275;SDS011;51875;49.994;14.052;2023-04-25T01:07:57;3.95;;;2.50;;
65275;SDS011;51875;49.994;14.052;2023-04-25T01:09:13;5.18;;;2.60;;
65275;SDS011;51875;49.994;14.052;2023-04-25T01:10:30;7.45;;;2.42;;
65275;SDS011;51875;49.994;14.052;2023-04-25T01:11:45;5.40;;;2.72;;
65275;SDS011;51875;49.994;14.052;2023-04-25T01:13:01;8.55;;;2.83;;
65275;SDS011;51875;49.994;14.052;2023-04-25T01:14:17;6.93;;;3.20;;
65275;SDS011;51875;49.994;14.052;2023-04-25T01:15:32;5.72;;;3.28;;
65275;SDS011;51875;49.994;14.052;2023-04-25T01:16:48;5.10;;;3.60;;
65275;SDS011;51875;49.994;14.052;2023-04-25T01:18:05;7.03;;;3.33;;
65275;SDS011;51875;49.994;14.052;2023-04-25T01:19:21;6.00;;;3.25;;
65275;SDS011;51875;49.994;14.052;2023-04-25T01:20:36;7.97;;;3.35;;
65275;SDS011;51875;49.994;14.052;2023-04-25T01:21:53;5.70;;;3.30;;
65275;SDS011;51875;49.994;14.052;2023-04-25T01:23:09;5.53;;;3.00;;
65275;SDS011;51875;49.994;14.052;2023-04-25T01:24:25;5.80;;;3.72;;
65275;SDS011;51875;49.994;14.052;2023-04-25T01:25:41;5.68;;;3.28;;
65275;SDS011;51875;49.994;14.052;2023-04-25T01:26:58;6.20;;;3.20;;
65275;SDS011;51875;49.994;14.052;2023-04-25T01:28:15;5.20;;;3.10;;
65275;SDS011;51875;49.994;14.052;2023-04-25T01:29:31;3.88;;;2.88;;
65275;SDS011;51875;49.994;14.052;2023-04-25T01:30:47;7.50;;;3.10;;
65275;SDS011;51875;49.994;14.052;2023-04-25T01:32:03;5.28;;;3.30;;
65275;SDS011;51875;49.994;14.052;2023-04-25T01:33:20;4.55;;;3.10;;
65275;SDS011;51875;49.994;14.052;2023-04-25T01:34:37;5.20;;;3.25;;
65275;SDS011;51875;49.994;14.052;2023-04-25T01:35:53;6.03;;;3.03;;
65275;SDS011;51875;49.994;14.052;2023-04-25T01:37:09;5.53;;;3.17;;
65275;SDS011;51875;49.994;14.052;2023-04-25T01:38:25;4.32;;;3.10;;
65275;SDS011;51875;49.994;14.052;2023-04-25T01:39:40;5.20;;;2.90;;
65275;SDS011;51875;49.994;14.052;2023-04-25T01:40:56;5.07;;;3.00;;
65275;SDS011;51875;49.994;14.052;2023-04-25T01:42:12;6.57;;;2.88;;
65275;SDS011;51875;49.994;14.052;2023-04-25T01:43:28;4.75;;;3.00;;
65275;SDS011;51875;49.994;14.052;2023-04-25T01:44:44;4.75;;;3.00;;
65275;SDS011;51875;49.994;14.052;2023-04-25T01:45:59;6.10;;;2.90;;
65275;SDS011;51875;49.994;14.052;2023-04-25T01:47:15;4.18;;;2.83;;
65275;SDS011;51875;49.994;14.052;2023-04-25T01:48:30;5.07;;;2.90;;
65275;SDS011;51875;49.994;14.052;2023-04-25T01:49:46;4.45;;;3.00;;
65275;SDS011;51875;49.994;14.052;2023-04-25T01:51:01;4.57;;;2.97;;
65275;SDS011;51875;49.994;14.052;2023-04-25T01:52:17;5.55;;;3.10;;
65275;SDS011;51875;49.994;14.052;2023-04-25T01:53:33;4.68;;;3.28;;
65275;SDS011;51875;49.994;14.052;2023-04-25T01:54:49;6.40;;;3.40;;
65275;SDS011;51875;49.994;14.052;2023-04-25T01:56:06;7.32;;;3.38;;
65275;SDS011;51875;49.994;14.052;2023-04-25T01:57:21;5.20;;;3.35;;
65275;SDS011;51875;49.994;14.052;2023-04-25T01:58:37;5.20;;;3.45;;
65275;SDS011;51875;49.994;14.052;2023-04-25T01:59:55;5.75;;;3.55;;
65275;SDS011;51875;49.994;14.052;2023-04-25T02:01:14;6.72;;;3.13;;
65275;SDS011;51875;49.994;14.052;2023-04-25T02:02:30;6.28;;;3.45;;
65275;SDS011;51875;49.994;14.052;2023-04-25T02:03:46;3.88;;;2.63;;
65275;SDS011;51875;49.994;14.052;2023-04-25T02:05:01;4.97;;;3.28;;
65275;SDS011;51875;49.994;14.052;2023-04-25T02:06:17;5.68;;;3.00;;
65275;SDS011;51875;49.994;14.052;2023-04-25T02:07:32;6.15;;;3.10;;
65275;SDS011;51875;49.994;14.052;2023-04-25T02:08:48;5.43;;;3.50;;
65275;SDS011;51875;49.994;14.052;2023-04-25T02:10:03;5.32;;;3.70;;
65275;SDS011;51875;49.994;14.052;2023-04-25T02:11:20;6.93;;;3.50;;
65275;SDS011;51875;49.994;14.052;2023-04-25T02:12:36;6.88;;;3.35;;
65275;SDS011;51875;49.994;14.052;2023-04-25T02:13:51;6.25;;;3.30;;
65275;SDS011;51875;49.994;14.052;2023-04-25T02:15:07;7.15;;;3.63;;
65275;SDS011;51875;49.994;14.052;2023-04-25T02:16:23;4.25;;;2.72;;
65275;SDS011;51875;49.994;14.052;2023-04-25T02:17:38;6.85;;;2.97;;
65275;SDS011;51875;49.994;14.052;2023-04-25T02:18:54;4.85;;;3.65;;
65275;SDS011;51875;49.994;14.052;2023-04-25T02:20:10;6.43;;;3.28;;
65275;SDS011;51875;49.994;14.052;2023-04-25T02:21:26;7.35;;;3.10;;
65275;SDS011;51875;49.994;14.052;2023-04-25T02:22:42;5.60;;;3.13;;
65275;SDS011;51875;49.994;14.052;2023-04-25T02:23:58;5.82;;;3.25;;
65275;SDS011;51875;49.994;14.052;2023-04-25T02:25:13;5.78;;;3.67;;
65275;SDS011;51875;49.994;14.052;2023-04-25T02:26:30;5.93;;;3.53;;
65275;SDS011;51875;49.994;14.052;2023-04-25T02:27:47;5.72;;;3.40;;
65275;SDS011;51875;49.994;14.052;2023-04-25T02:29:03;4.72;;;2.85;;
65275;SDS011;51875;49.994;14.052;2023-04-25T02:30:19;4.85;;;3.10;;
65275;SDS011;51875;49.994;14.052;2023-04-25T02:31:34;4.88;;;3.13;;
65275;SDS011;51875;49.994;14.052;2023-04-25T02:32:50;6.00;;;2.97;;
65275;SDS011;51875;49.994;14.052;2023-04-25T02:34:06;4.53;;;2.88;;
65275;SDS011;51875;49.994;14.052;2023-04-25T02:35:21;4.10;;;2.90;;
65275;SDS011;51875;49.994;14.052;2023-04-25T02:36:37;5.43;;;3.10;;
65275;SDS011;51875;49.994;14.052;2023-04-25T02:37:52;6.75;;;3.00;;
65275;SDS011;51875;49.994;14.052;2023-04-25T02:39:09;5.07;;;3.00;;
65275;SDS011;51875;49.994;14.052;2023-04-25T02:40:25;5.68;;;3.00;;
65275;SDS011;51875;49.994;14.052;2023-04-25T02:41:41;6.47;;;2.90;;
65275;SDS011;51875;49.994;14.052;2023-04-25T02:42:56;4.32;;;3.22;;
65275;SDS011;51875;49.994;14.052;2023-04-25T02:44:12;5.30;;;2.97;;
65275;SDS011;51875;49.994;14.052;2023-04-25T02:45:28;8.68;;;3.40;;
65275;SDS011;51875;49.994;14.052;2023-04-25T02:46:43;6.65;;;3.33;;
65275;SDS011;51875;49.994;14.052;2023-04-25T02:47:59;5.85;;;3.53;;
65275;SDS011;51875;49.994;14.052;2023-04-25T02:49:14;5.95;;;3.53;;
65275;SDS011;51875;49.994;14.052;2023-04-25T02:50:30;7.38;;;3.47;;
65275;SDS011;51875;49.994;14.052;2023-04-25T02:51:46;6.35;;;3.90;;
65275;SDS011;51875;49.994;14.052;2023-04-25T02:53:01;6.22;;;3.33;;
65275;SDS011;51875;49.994;14.052;2023-04-25T02:54:17;5.40;;;3.45;;
65275;SDS011;51875;49.994;14.052;2023-04-25T02:55:32;5.00;;;3.22;;
65275;SDS011;51875;49.994;14.052;2023-04-25T02:56:48;5.25;;;3.60;;
65275;SDS011;51875;49.994;14.052;2023-04-25T02:58:04;7.38;;;3.33;;
65275;SDS011;51875;49.994;14.052;2023-04-25T02:59:20;6.18;;;3.40;;
65275;SDS011;51875;49.994;14.052;2023-04-25T03:00:35;6.55;;;3.58;;
65275;SDS011;51875;49.994;14.052;2023-04-25T03:01:51;5.75;;;3.50;;
65275;SDS011;51875;49.994;14.052;2023-04-25T03:03:07;6.72;;;3.67;;
65275;SDS011;51875;49.994;14.052;2023-04-25T03:04:22;7.30;;;3.60;;
65275;SDS011;51875;49.994;14.052;2023-04-25T03:05:39;6.07;;;3.67;;
65275;SDS011;51875;49.994;14.052;2023-04-25T03:06:54;7.30;;;4.05;;
65275;SDS011;51875;49.994;14.052;2023-04-25T03:08:10;6.85;;;3.65;;
65275;SDS011;51875;49.994;14.052;2023-04-25T03:09:25;6.55;;;3.60;;
65275;SDS011;51875;49.994;14.052;2023-04-25T03:10:41;5.90;;;3.67;;
65275;SDS011;51875;49.994;14.052;2023-04-25T03:11:57;6.55;;;3.92;;
65275;SDS011;51875;49.994;14.052;2023-04-25T03:13:12;6.80;;;3.55;;
65275;SDS011;51875;49.994;14.052;2023-04-25T03:14:28;7.45;;;3.50;;
65275;SDS011;51875;49.994;14.052;2023-04-25T03:15:43;5.57;;;3.67;;
65275;SDS011;51875;49.994;14.052;2023-04-25T03:16:59;5.13;;;3.35;;
65275;SDS011;51875;49.994;14.052;2023-04-25T03:18:15;5.30;;;3.08;;
65275;SDS011;51875;49.994;14.052;2023-04-25T03:19:30;5.53;;;3.47;;
65275;SDS011;51875;49.994;14.052;2023-04-25T03:20:46;6.18;;;3.60;;
65275;SDS011;51875;49.994;14.052;2023-04-25T03:22:02;4.82;;;3.00;;
65275;SDS011;51875;49.994;14.052;2023-04-25T03:23:17;5.43;;;2.95;;
65275;SDS011;51875;49.994;14.052;2023-04-25T03:24:33;6.22;;;3.20;;
65275;SDS011;51875;49.994;14.052;2023-04-25T03:25:49;5.35;;;3.50;;
65275;SDS011;51875;49.994;14.052;2023-04-25T03:27:04;4.63;;;3.00;;
65275;SDS011;51875;49.994;14.052;2023-04-25T03:28:20;6.07;;;3.17;;
65275;SDS011;51875;49.994;14.052;2023-04-25T03:29:35;4.68;;;3.00;;
65275;SDS011;51875;49.994;14.052;2023-04-25T03:30:51;6.05;;;3.42;;
65275;SDS011;51875;49.994;14.052;2023-04-25T03:32:07;7.05;;;3.47;;
65275;SDS011;51875;49.994;14.052;2023-04-25T03:33:22;4.85;;;3.10;;
65275;SDS011;51875;49.994;14.052;2023-04-25T03:34:38;5.18;;;3.30;;
65275;SDS011;51875;49.994;14.052;2023-04-25T03:35:53;4.43;;;2.97;;
65275;SDS011;51875;49.994;14.052;2023-04-25T03:37:09;6.57;;;3.20;;
65275;SDS011;51875;49.994;14.052;2023-04-25T03:38:26;8.70;;;3.50;;
65275;SDS011;51875;49.994;14.052;2023-04-25T03:39:41;6.22;;;3.67;;
65275;SDS011;51875;49.994;14.052;2023-04-25T03:40:57;6.28;;;3.08;;
65275;SDS011;51875;49.994;14.052;2023-04-25T03:42:13;4.60;;;3.50;;
65275;SDS011;51875;49.994;14.052;2023-04-25T03:43:28;6.50;;;3.70;;
65275;SDS011;51875;49.994;14.052;2023-04-25T03:44:44;6.05;;;3.50;;
65275;SDS011;51875;49.994;14.052;2023-04-25T03:46:00;7.82;;;4.15;;
65275;SDS011;51875;49.994;14.052;2023-04-25T03:47:16;4.47;;;3.08;;
65275;SDS011;51875;49.994;14.052;2023-04-25T03:48:31;6.05;;;3.42;;
65275;SDS011;51875;49.994;14.052;2023-04-25T03:49:47;6.28;;;3.55;;
65275;SDS011;51875;49.994;14.052;2023-04-25T03:51:04;6.80;;;3.30;;
65275;SDS011;51875;49.994;14.052;2023-04-25T03:52:19;5.57;;;3.35;;
65275;SDS011;51875;49.994;14.052;2023-04-25T03:53:35;8.40;;;3.70;;
65275;SDS011;51875;49.994;14.052;2023-04-25T03:54:51;5.50;;;3.85;;
65275;SDS011;51875;49.994;14.052;2023-04-25T03:56:07;6.78;;;3.78;;
65275;SDS011;51875;49.994;14.052;2023-04-25T03:57:22;5.65;;;3.60;;
65275;SDS011;51875;49.994;14.052;2023-04-25T03:58:38;6.38;;;3.45;;
65275;SDS011;51875;49.994;14.052;2023-04-25T03:59:54;4.75;;;3.10;;
65275;SDS011;51875;49.994;14.052;2023-04-25T04:01:09;5.68;;;3.55;;
65275;SDS011;51875;49.994;14.052;2023-04-25T04:02:25;7.25;;;4.00;;
65275;SDS011;51875;49.994;14.052;2023-04-25T04:03:41;5.53;;;3.63;;
65275;SDS011;51875;49.994;14.052;2023-04-25T04:04:57;7.47;;;4.30;;
65275;SDS011;51875;49.994;14.052;2023-04-25T04:06:13;10.35;;;4.43;;
65275;SDS011;51875;49.994;14.052;2023-04-25T04:07:29;8.10;;;3.80;;
65275;SDS011;51875;49.994;14.052;2023-04-25T04:08:44;5.32;;;3.70;;
65275;SDS011;51875;49.994;14.052;2023-04-25T04:10:00;5.93;;;4.05;;
65275;SDS011;51875;49.994;14.052;2023-04-25T04:11:16;6.95;;;3.95;;
65275;SDS011;51875;49.994;14.052;2023-04-25T04:12:31;6.05;;;3.47;;
65275;SDS011;51875;49.994;14.052;2023-04-25T04:13:46;4.95;;;3.50;;
65275;SDS011;51875;49.994;14.052;2023-04-25T04:15:05;6.00;;;4.07;;
65275;SDS011;51875;49.994;14.052;2023-04-25T04:16:21;6.43;;;3.83;;
65275;SDS011;51875;49.994;14.052;2023-04-25T04:17:37;6.75;;;4.05;;
65275;SDS011;51875;49.994;14.052;2023-04-25T04:18:53;7.53;;;4.47;;
65275;SDS011;51875;49.994;14.052;2023-04-25T04:20:08;8.10;;;4.30;;
65275;SDS011;51875;49.994;14.052;2023-04-25T04:21:24;8.10;;;4.15;;
65275;SDS011;51875;49.994;14.052;2023-04-25T04:22:42;6.18;;;3.92;;
65275;SDS011;51875;49.994;14.052;2023-04-25T04:23:58;6.57;;;3.75;;
65275;SDS011;51875;49.994;14.052;2023-04-25T04:25:15;7.43;;;4.20;;
65275;SDS011;51875;49.994;14.052;2023-04-25T04:26:31;9.43;;;4.20;;
65275;SDS011;51875;49.994;14.052;2023-04-25T04:27:47;7.68;;;4.10;;
65275;SDS011;51875;49.994;14.052;2023-04-25T04:29:03;6.82;;;4.30;;
65275;SDS011;51875;49.994;14.052;2023-04-25T04:30:19;6.57;;;3.95;;
65275;SDS011;51875;49.994;14.052;2023-04-25T04:31:35;6.38;;;4.50;;
65275;SDS011;51875;49.994;14.052;2023-04-25T04:32:51;6.95;;;4.10;;
65275;SDS011;51875;49.994;14.052;2023-04-25T04:34:07;6.97;;;4.20;;
65275;SDS011;51875;49.994;14.052;2023-04-25T04:35:22;6.00;;;4.15;;
65275;SDS011;51875;49.994;14.052;2023-04-25T04:36:39;6.95;;;4.15;;
65275;SDS011;51875;49.994;14.052;2023-04-25T04:37:55;5.47;;;3.75;;
65275;SDS011;51875;49.994;14.052;2023-04-25T04:39:11;6.20;;;4.15;;
65275;SDS011;51875;49.994;14.052;2023-04-25T04:40:28;6.50;;;4.03;;
65275;SDS011;51875;49.994;14.052;2023-04-25T04:41:45;5.28;;;3.28;;
65275;SDS011;51875;49.994;14.052;2023-04-25T04:43:01;8.48;;;4.25;;
65275;SDS011;51875;49.994;14.052;2023-04-25T04:44:17;5.30;;;3.67;;
65275;SDS011;51875;49.994;14.052;2023-04-25T04:45:33;6.88;;;4.05;;
65275;SDS011;51875;49.994;14.052;2023-04-25T04:46:48;5.22;;;3.50;;
65275;SDS011;51875;49.994;14.052;2023-04-25T04:48:05;7.00;;;4.15;;
65275;SDS011;51875;49.994;14.052;2023-04-25T04:49:21;4.88;;;3.55;;
65275;SDS011;51875;49.994;14.052;2023-04-25T04:50:37;6.22;;;3.75;;
65275;SDS011;51875;49.994;14.052;2023-04-25T04:51:53;6.03;;;3.42;;
65275;SDS011;51875;49.994;14.052;2023-04-25T04:53:09;5.80;;;3.78;;
65275;SDS011;51875;49.994;14.052;2023-04-25T04:54:25;4.90;;;3.35;;
65275;SDS011;51875;49.994;14.052;2023-04-25T04:55:42;9.77;;;3.72;;
65275;SDS011;51875;49.994;14.052;2023-04-25T04:56:57;7.30;;;4.15;;
65275;SDS011;51875;49.994;14.052;2023-04-25T04:58:13;8.82;;;4.22;;
65275;SDS011;51875;49.994;14.052;2023-04-25T04:59:29;7.50;;;3.65;;
65275;SDS011;51875;49.994;14.052;2023-04-25T05:00:45;6.22;;;3.70;;
65275;SDS011;51875;49.994;14.052;2023-04-25T05:02:00;5.85;;;3.90;;
65275;SDS011;51875;49.994;14.052;2023-04-25T05:03:16;6.15;;;4.40;;
65275;SDS011;51875;49.994;14.052;2023-04-25T05:04:31;8.93;;;4.93;;
65275;SDS011;51875;49.994;14.052;2023-04-25T05:05:47;8.73;;;4.65;;
65275;SDS011;51875;49.994;14.052;2023-04-25T05:07:02;7.93;;;4.50;;
65275;SDS011;51875;49.994;14.052;2023-04-25T05:08:18;9.43;;;5.30;;
65275;SDS011;51875;49.994;14.052;2023-04-25T05:09:35;7.70;;;4.75;;
65275;SDS011;51875;49.994;14.052;2023-04-25T05:10:50;8.52;;;3.92;;
65275;SDS011;51875;49.994;14.052;2023-04-25T05:12:06;5.25;;;3.72;;
65275;SDS011;51875;49.994;14.052;2023-04-25T05:13:22;9.05;;;4.70;;
65275;SDS011;51875;49.994;14.052;2023-04-25T05:14:37;8.50;;;3.90;;
65275;SDS011;51875;49.994;14.052;2023-04-25T05:15:53;7.07;;;3.72;;
65275;SDS011;51875;49.994;14.052;2023-04-25T05:17:08;5.32;;;3.60;;
65275;SDS011;51875;49.994;14.052;2023-04-25T05:18:24;7.38;;;4.20;;
65275;SDS011;51875;49.994;14.052;2023-04-25T05:19:40;7.18;;;4.22;;
65275;SDS011;51875;49.994;14.052;2023-04-25T05:20:55;7.07;;;4.45;;
65275;SDS011;51875;49.994;14.052;2023-04-25T05:22:11;6.82;;;4.60;;
65275;SDS011;51875;49.994;14.052;2023-04-25T05:23:26;6.40;;;3.78;;
65275;SDS011;51875;49.994;14.052;2023-04-25T05:24:42;6.68;;;3.72;;
65275;SDS011;51875;49.994;14.052;2023-04-25T05:25:58;6.53;;;3.70;;
65275;SDS011;51875;49.994;14.052;2023-04-25T05:27:16;5.78;;;3.50;;
65275;SDS011;51875;49.994;14.052;2023-04-25T05:28:32;11.45;;;4.80;;
65275;SDS011;51875;49.994;14.052;2023-04-25T05:29:48;7.55;;;3.95;;
65275;SDS011;51875;49.994;14.052;2023-04-25T05:31:03;7.75;;;4.00;;
65275;SDS011;51875;49.994;14.052;2023-04-25T05:32:19;9.68;;;4.00;;
65275;SDS011;51875;49.994;14.052;2023-04-25T05:33:35;6.60;;;3.97;;
65275;SDS011;51875;49.994;14.052;2023-04-25T05:34:50;5.90;;;3.90;;
65275;SDS011;51875;49.994;14.052;2023-04-25T05:36:06;7.00;;;4.00;;
65275;SDS011;51875;49.994;14.052;2023-04-25T05:37:22;7.65;;;4.10;;
65275;SDS011;51875;49.994;14.052;2023-04-25T05:38:38;7.03;;;3.90;;
65275;SDS011;51875;49.994;14.052;2023-04-25T05:39:53;6.82;;;4.00;;
65275;SDS011;51875;49.994;14.052;2023-04-25T05:41:09;7.10;;;3.70;;
65275;SDS011;51875;49.994;14.052;2023-04-25T05:42:25;5.70;;;3.97;;
65275;SDS011;51875;49.994;14.052;2023-04-25T05:43:40;7.28;;;3.80;;
65275;SDS011;51875;49.994;14.052;2023-04-25T05:45:02;5.43;;;3.77;;
65275;SDS011;51875;49.994;14.052;2023-04-25T05:46:18;5.93;;;3.65;;
65275;SDS011;51875;49.994;14.052;2023-04-25T05:47:33;6.45;;;3.92;;
65275;SDS011;51875;49.994;14.052;2023-04-25T05:48:49;8.10;;;4.28;;
65275;SDS011;51875;49.994;14.052;2023-04-25T05:50:05;7.45;;;4.95;;
65275;SDS011;51875;49.994;14.052;2023-04-25T05:51:21;7.28;;;4.78;;
65275;SDS011;51875;49.994;14.052;2023-04-25T05:52:36;5.55;;;3.92;;
65275;SDS011;51875;49.994;14.052;2023-04-25T05:53:52;7.07;;;4.22;;
65275;SDS011;51875;49.994;14.052;2023-04-25T05:55:08;7.03;;;4.22;;
65275;SDS011;51875;49.994;14.052;2023-04-25T05:56:24;6.88;;;4.40;;
65275;SDS011;51875;49.994;14.052;2023-04-25T05:57:40;7.20;;;4.45;;
65275;SDS011;51875;49.994;14.052;2023-04-25T05:58:56;8.15;;;3.90;;
65275;SDS011;51875;49.994;14.052;2023-04-25T06:00:12;6.63;;;4.00;;
65275;SDS011;51875;49.994;14.052;2023-04-25T06:01:30;5.30;;;3.97;;
65275;SDS011;51875;49.994;14.052;2023-04-25T06:02:46;5.60;;;3.92;;
65275;SDS011;51875;49.994;14.052;2023-04-25T06:04:01;6.18;;;4.30;;
65275;SDS011;51875;49.994;14.052;2023-04-25T06:05:17;6.53;;;4.15;;
65275;SDS011;51875;49.994;14.052;2023-04-25T06:06:33;5.38;;;4.25;;
65275;SDS011;51875;49.994;14.052;2023-04-25T06:07:48;6.25;;;4.38;;
65275;SDS011;51875;49.994;14.052;2023-04-25T06:09:04;12.00;;;7.13;;
65275;SDS011;51875;49.994;14.052;2023-04-25T06:10:20;16.92;;;9.63;;
65275;SDS011;51875;49.994;14.052;2023-04-25T06:11:35;21.77;;;10.82;;
65275;SDS011;51875;49.994;14.052;2023-04-25T06:12:51;18.60;;;9.50;;
65275;SDS011;51875;49.994;14.052;2023-04-25T06:14:07;17.15;;;10.45;;
65275;SDS011;51875;49.994;14.052;2023-04-25T06:15:23;19.55;;;10.68;;
65275;SDS011;51875;49.994;14.052;2023-04-25T06:16:38;17.10;;;7.85;;
65275;SDS011;51875;49.994;14.052;2023-04-25T06:17:54;11.38;;;6.53;;
65275;SDS011;51875;49.994;14.052;2023-04-25T06:19:10;11.60;;;7.30;;
65275;SDS011;51875;49.994;14.052;2023-04-25T06:20:26;9.45;;;6.50;;
65275;SDS011;51875;49.994;14.052;2023-04-25T06:21:42;16.55;;;6.93;;
65275;SDS011;51875;49.994;14.052;2023-04-25T06:22:59;17.40;;;8.27;;
65275;SDS011;51875;49.994;14.052;2023-04-25T06:24:15;13.65;;;7.30;;
65275;SDS011;51875;49.994;14.052;2023-04-25T06:25:30;15.18;;;6.63;;
65275;SDS011;51875;49.994;14.052;2023-04-25T06:26:46;12.48;;;7.00;;
65275;SDS011;51875;49.994;14.052;2023-04-25T06:28:02;12.10;;;6.97;;
65275;SDS011;51875;49.994;14.052;2023-04-25T06:29:18;14.88;;;8.20;;
65275;SDS011;51875;49.994;14.052;2023-04-25T06:30:34;12.18;;;7.30;;
65275;SDS011;51875;49.994;14.052;2023-04-25T06:31:50;19.35;;;9.90;;
65275;SDS011;51875;49.994;14.052;2023-04-25T06:33:06;14.38;;;9.20;;
65275;SDS011;51875;49.994;14.052;2023-04-25T06:34:23;13.50;;;6.82;;
65275;SDS011;51875;49.994;14.052;2023-04-25T06:35:39;11.98;;;7.03;;
65275;SDS011;51875;49.994;14.052;2023-04-25T06:36:55;13.40;;;6.72;;
65275;SDS011;51875;49.994;14.052;2023-04-25T06:38:10;10.02;;;5.85;;
65275;SDS011;51875;49.994;14.052;2023-04-25T06:39:26;8.60;;;5.07;;
65275;SDS011;51875;49.994;14.052;2023-04-25T06:40:41;9.55;;;5.40;;
65275;SDS011;51875;49.994;14.052;2023-04-25T06:41:58;7.38;;;4.53;;
65275;SDS011;51875;49.994;14.052;2023-04-25T06:43:14;9.15;;;4.80;;
65275;SDS011;51875;49.994;14.052;2023-04-25T06:44:30;7.57;;;4.20;;
65275;SDS011;51875;49.994;14.052;2023-04-25T06:45:46;8.43;;;4.35;;
65275;SDS011;51875;49.994;14.052;2023-04-25T06:47:02;7.88;;;4.88;;
65275;SDS011;51875;49.994;14.052;2023-04-25T06:48:18;7.47;;;4.88;;
65275;SDS011;51875;49.994;14.052;2023-04-25T06:49:33;6.13;;;4.70;;
65275;SDS011;51875;49.994;14.052;2023-04-25T06:50:49;7.15;;;4.10;;
65275;SDS011;51875;49.994;14.052;2023-04-25T06:52:04;6.85;;;4.63;;
65275;SDS011;51875;49.994;14.052;2023-04-25T06:53:39;5.72;;;3.85;;
65275;SDS011;51875;49.994;14.052;2023-04-25T06:54:55;5.13;;;2.83;;
65275;SDS011;51875;49.994;14.052;2023-04-25T06:56:11;5.30;;;3.70;;
65275;SDS011;51875;49.994;14.052;2023-04-25T06:57:26;5.10;;;3.40;;
65275;SDS011;51875;49.994;14.052;2023-04-25T06:58:42;6.90;;;4.07;;
65275;SDS011;51875;49.994;14.052;2023-04-25T06:59:57;6.10;;;4.00;;
65275;SDS011;51875;49.994;14.052;2023-04-25T07:01:13;6.55;;;4.00;;
65275;SDS011;51875;49.994;14.052;2023-04-25T07:02:29;6.60;;;4.05;;
65275;SDS011;51875;49.994;14.052;2023-04-25T07:03:45;6.85;;;4.20;;
65275;SDS011;51875;49.994;14.052;2023-04-25T07:05:00;6.10;;;3.20;;
65275;SDS011;51875;49.994;14.052;2023-04-25T07:06:19;5.25;;;3.33;;
65275;SDS011;51875;49.994;14.052;2023-04-25T07:07:34;5.72;;;3.40;;
65275;SDS011;51875;49.994;14.052;2023-04-25T07:08:50;7.05;;;3.90;;
65275;SDS011;51875;49.994;14.052;2023-04-25T07:10:06;4.80;;;3.90;;
65275;SDS011;51875;49.994;14.052;2023-04-25T07:11:21;4.65;;;3.35;;
65275;SDS011;51875;49.994;14.052;2023-04-25T07:12:37;5.25;;;3.50;;
65275;SDS011;51875;49.994;14.052;2023-04-25T07:13:52;6.22;;;3.17;;
65275;SDS011;51875;49.994;14.052;2023-04-25T07:15:08;6.03;;;3.97;;
65275;SDS011;51875;49.994;14.052;2023-04-25T07:16:25;6.25;;;3.78;;
65275;SDS011;51875;49.994;14.052;2023-04-25T07:17:40;6.38;;;3.90;;
65275;SDS011;51875;49.994;14.052;2023-04-25T07:18:56;5.85;;;4.10;;
65275;SDS011;51875;49.994;14.052;2023-04-25T07:20:11;6.63;;;4.05;;
65275;SDS011;51875;49.994;14.052;2023-04-25T07:21:27;6.47;;;4.10;;
65275;SDS011;51875;49.994;14.052;2023-04-25T07:22:43;5.13;;;3.17;;
65275;SDS011;51875;49.994;14.052;2023-04-25T07:23:59;4.70;;;2.92;;
65275;SDS011;51875;49.994;14.052;2023-04-25T07:25:14;4.95;;;3.05;;
65275;SDS011;51875;49.994;14.052;2023-04-25T07:26:30;6.32;;;3.90;;
65275;SDS011;51875;49.994;14.052;2023-04-25T07:27:45;5.47;;;3.10;;
65275;SDS011;51875;49.994;14.052;2023-04-25T07:29:01;6.50;;;3.92;;
65275;SDS011;51875;49.994;14.052;2023-04-25T07:30:17;6.22;;;3.63;;